Time;durP1;ratioP1;P1;durP2;ratioP2;P2;SDS_P1;SDS_P2;PMS_P1;PMS_P2;Temp;Humidity;BMP_temperature;BMP_pressure;BME280_temperature;BME280_humidity;BME280_pressure;Samples;Min_cycle;Max_cycle;Signal;HPM_P1;HPM_P2
2022/04/22 00:03:40;;;;;;;;;;;;;;;17.19;30.76;94385.56;10387291;28;1160;-56
2022/04/22 00:08:40;;;;;;;;;;;;;;;17.18;30.86;94389.22;10374892;28;1386;-56
2022/04/22 00:13:42;;;;;;;;;;;;;;;17.18;30.87;94376.13;10392947;28;1508;-57
2022/04/22 00:18:43;;;;;;;;;;;;;;;17.17;30.85;94375.34;10395196;28;1914;-56
2022/04/22 00:23:43;;;;;;;;;;;;;;;17.17;30.92;94359.63;10392247;28;1360;-56
2022/04/22 00:28:44;;;;;;;;;;;;;;;17.19;30.88;94362.00;10373329;28;1708;-57
2022/04/22 00:33:44;;;;;;;;;;;;;;;17.18;30.72;94355.97;10376227;28;1349;-53
2022/04/22 00:38:45;;;;;;;;;;;;;;;17.18;30.78;94350.72;10376947;28;1887;-57
2022/04/22 00:43:46;;;;;;;;;;;;;;;17.16;30.93;94334.53;10375031;28;1522;-56
2022/04/22 00:48:46;;;;;;;;;;;;;;;17.17;30.78;94333.44;10396131;28;1545;-55
2022/04/22 00:53:46;;;;;;;;;;;;;;;17.17;30.77;94327.44;10373024;28;1473;-56
2022/04/22 00:58:48;;;;;;;;;;;;;;;17.16;30.86;94316.19;10379327;28;1902;-57
2022/04/22 01:14:28;;;;;;;;;;;;;;;17.18;30.77;94298.38;10393633;28;1973;-57
2022/04/22 01:19:28;;;;;;;;;;;;;;;17.17;30.79;94294.19;10374238;28;1528;-55
2022/04/22 01:24:29;;;;;;;;;;;;;;;17.17;30.93;94291.56;10372943;28;2271;-58
2022/04/22 01:29:29;;;;;;;;;;;;;;;17.17;30.86;94290.78;10376757;28;1463;-56
2022/04/22 01:34:30;;;;;;;;;;;;;;;17.17;30.84;94280.31;10388234;28;1942;-53
2022/04/22 01:39:30;;;;;;;;;;;;;;;17.17;30.69;94272.44;10393524;28;1462;-56
2022/04/22 01:44:30;;;;;;;;;;;;;;;17.17;30.71;94264.59;10390448;28;1193;-54
2022/04/22 01:49:31;;;;;;;;;;;;;;;17.16;30.85;94268.28;10393816;28;1419;-56
2022/04/22 01:54:31;;;;;;;;;;;;;;;17.15;30.72;94257.03;10390715;28;1942;-53
2022/04/22 01:59:32;;;;;;;;;;;;;;;17.15;30.90;94249.19;10393291;28;1524;-56
2022/04/22 02:04:32;;;;;;;;;;;;;;;17.17;30.68;94259.34;10391826;28;1169;-56
2022/04/22 02:09:32;;;;;;;;;;;;;;;17.16;30.73;94255.97;10377787;28;1497;-54
2022/04/22 02:14:33;;;;;;;;;;;;;;;17.16;30.75;94249.97;10388348;28;1981;-55
2022/04/22 02:19:34;;;;;;;;;;;;;;;17.16;30.78;94250.75;10389531;23;2167;-72
2022/04/22 02:24:35;;;;;;;;;;;;;;;17.16;30.71;94242.88;10452840;28;1389;-73
2022/04/22 02:29:37;;;;;;;;;;;;;;;17.15;30.84;94235.31;10439017;28;1443;-72
2022/04/22 02:34:37;;;;;;;;;;;;;;;17.15;30.85;94236.09;10430406;28;1987;-72
2022/04/22 02:39:38;;;;;;;;;;;;;;;17.15;30.84;94235.31;10421150;28;1413;-72
2022/04/22 02:49:57;;;;;;;;;;;;;;;17.15;30.87;94219.59;10432621;28;1924;-72
2022/04/22 02:54:57;;;;;;;;;;;;;;;17.16;30.86;94215.91;10446058;28;1918;-72
2022/04/22 02:59:58;;;;;;;;;;;;;;;17.15;30.81;94223.00;10415882;28;2546;-72
2022/04/22 03:04:58;;;;;;;;;;;;;;;17.14;30.80;94213.59;10409529;28;1377;-73
2022/04/22 03:09:59;;;;;;;;;;;;;;;17.15;30.81;94211.75;10426607;28;1420;-72
2022/04/22 03:15:00;;;;;;;;;;;;;;;17.15;30.80;94209.13;10436546;28;1973;-72
2022/04/22 03:20:01;;;;;;;;;;;;;;;17.15;30.77;94196.03;10440390;28;1357;-72
2022/04/22 03:25:02;;;;;;;;;;;;;;;17.13;30.81;94193.72;10441858;28;1356;-72
2022/04/22 03:30:03;;;;;;;;;;;;;;;17.15;30.86;94191.56;10430898;28;1740;-72
2022/04/22 03:35:05;;;;;;;;;;;;;;;17.14;30.83;94190.03;10423194;28;1910;-72
2022/04/22 03:40:05;;;;;;;;;;;;;;;17.14;30.68;94181.41;10425944;28;1393;-72
2022/04/22 03:45:06;;;;;;;;;;;;;;;17.14;30.85;94176.94;10423274;28;1827;-72
2022/04/22 03:50:07;;;;;;;;;;;;;;;17.14;30.76;94170.94;10414137;28;1374;-72
2022/04/22 03:55:08;;;;;;;;;;;;;;;17.14;30.86;94163.84;10439303;28;1965;-72
2022/04/22 04:00:08;;;;;;;;;;;;;;;17.15;30.69;94156.75;10446758;28;1496;-72
2022/04/22 04:05:09;;;;;;;;;;;;;;;17.13;30.81;94159.66;10426289;28;1349;-72
2022/04/22 04:26:07;;;;;;;;;;;;;;;17.16;30.79;94146.00;10435633;28;1396;-72
2022/04/22 04:31:08;;;;;;;;;;;;;;;17.14;30.80;94148.16;10418175;28;1457;-72
2022/04/22 04:36:12;;;;;;;;;;;;;;;17.14;30.72;94158.63;10427259;28;1909;-72
2022/04/22 04:41:13;;;;;;;;;;;;;;;17.14;30.80;94165.69;10432960;28;1306;-72
2022/04/22 04:46:13;;;;;;;;;;;;;;;17.15;30.76;94162.78;10444964;28;1346;-72
2022/04/22 04:51:13;;;;;;;;;;;;;;;17.12;30.66;94168.59;10416778;28;1405;-73
2022/04/22 04:56:14;;;;;;;;;;;;;;;17.14;30.73;94170.94;10413709;28;1983;-72
2022/04/22 05:01:14;;;;;;;;;;;;;;;17.14;30.83;94163.84;10420118;28;1510;-72
2022/04/22 05:06:15;;;;;;;;;;;;;;;17.14;30.81;94166.47;10414869;28;1608;-72
2022/04/22 05:11:19;;;;;;;;;;;;;;;17.16;30.72;94168.78;10431561;28;1391;-72
2022/04/22 05:16:19;;;;;;;;;;;;;;;17.15;30.62;94167.22;10419966;28;1902;-72
2022/04/22 05:21:20;;;;;;;;;;;;;;;17.15;30.71;94168.00;10444761;28;1469;-72
2022/04/22 05:26:24;;;;;;;;;;;;;;;17.15;30.73;94169.84;10445738;28;1259;-72
2022/04/22 05:36:43;;;;;;;;;;;;;;;17.16;30.77;94164.34;10429979;28;2292;-72
2022/04/22 05:41:43;;;;;;;;;;;;;;;17.13;30.81;94167.53;10448717;28;1376;-72
2022/04/22 05:46:45;;;;;;;;;;;;;;;17.15;30.94;94162.00;10449443;28;1346;-72
2022/04/22 05:51:45;;;;;;;;;;;;;;;17.15;30.80;94156.75;10437664;28;1428;-72
2022/04/22 05:56:45;;;;;;;;;;;;;;;17.15;30.75;94154.13;10447194;28;1910;-72
2022/04/22 06:01:46;;;;;;;;;;;;;;;17.16;30.90;94159.09;10440934;28;1332;-72
2022/04/22 06:06:47;;;;;;;;;;;;;;;17.16;30.82;94159.09;10412925;28;1380;-71
2022/04/22 06:11:47;;;;;;;;;;;;;;;17.15;30.79;94156.75;10429847;28;1269;-72
2022/04/22 06:16:47;;;;;;;;;;;;;;;17.17;30.85;94150.16;10445354;28;1906;-72
2022/04/22 06:21:47;;;;;;;;;;;;;;;17.15;30.80;94157.53;10415528;28;1493;-72
2022/04/22 06:26:49;;;;;;;;;;;;;;;17.15;30.95;94156.75;10428274;28;1427;-72
2022/04/22 06:31:49;;;;;;;;;;;;;;;17.16;30.76;94158.31;10447288;28;1399;-72
2022/04/22 06:36:50;;;;;;;;;;;;;;;17.15;30.93;94151.53;10447051;28;1906;-72
2022/04/22 06:47:10;;;;;;;;;;;;;;;17.16;30.90;94153.88;10446046;28;1376;-72
2022/04/22 06:52:13;;;;;;;;;;;;;;;17.14;30.81;94155.22;10440576;28;1154;-70
2022/04/22 06:57:14;;;;;;;;;;;;;;;17.14;30.83;94149.97;10425774;28;1914;-72
2022/04/22 07:02:14;;;;;;;;;;;;;;;17.13;30.95;94143.97;10430179;28;1422;-71
2022/04/22 07:07:14;;;;;;;;;;;;;;;17.13;30.96;94151.81;10428598;28;1426;-72
2022/04/22 07:12:15;;;;;;;;;;;;;;;17.13;30.86;94146.59;10416382;28;1614;-72
2022/04/22 07:17:16;;;;;;;;;;;;;;;17.13;31.00;94137.94;10427124;28;1973;-72
2022/04/22 07:22:16;;;;;;;;;;;;;;;17.13;31.06;94135.31;10426151;28;1199;-73
2022/04/22 07:27:18;;;;;;;;;;;;;;;17.14;30.91;94126.41;10412327;28;1498;-74
2022/04/22 07:32:18;;;;;;;;;;;;;;;17.10;30.96;94124.38;10406733;28;1547;-71
2022/04/22 07:37:19;;;;;;;;;;;;;;;17.13;31.01;94128.25;10428746;28;1969;-73
2022/04/22 07:42:20;;;;;;;;;;;;;;;17.13;30.94;94128.25;10417727;28;1440;-73
2022/04/22 07:47:20;;;;;;;;;;;;;;;17.14;30.85;94121.97;10442416;28;1347;-74
2022/04/22 07:52:21;;;;;;;;;;;;;;;17.14;30.95;94119.34;10425695;28;1223;-73
2022/04/22 07:57:21;;;;;;;;;;;;;;;17.13;30.95;94123.03;10426989;28;1907;-74
2022/04/22 08:02:23;;;;;;;;;;;;;;;17.13;31.03;94120.41;10441460;28;1276;-73
2022/04/22 08:07:24;;;;;;;;;;;;;;;17.15;31.03;94120.09;10438868;28;1520;-73
2022/04/22 08:12:24;;;;;;;;;;;;;;;17.14;30.98;94116.72;10424375;28;1343;-73
2022/04/22 08:17:25;;;;;;;;;;;;;;;17.14;30.99;94116.72;10443983;28;1902;-73
2022/04/22 08:22:25;;;;;;;;;;;;;;;17.14;31.00;94114.13;10426338;28;1198;-72
2022/04/22 08:27:28;;;;;;;;;;;;;;;17.15;31.01;94122.72;10427965;28;1407;-72
2022/04/22 08:32:29;;;;;;;;;;;;;;;17.13;31.03;94120.41;10428911;28;1397;-72
2022/04/22 08:37:29;;;;;;;;;;;;;;;17.15;31.12;94126.13;10434844;28;1953;-72
2022/04/22 08:42:29;;;;;;;;;;;;;;;17.14;30.98;94121.19;10451041;28;1598;-72
2022/04/22 08:52:53;;;;;;;;;;;;;;;17.15;31.07;94118.25;10450924;28;1351;-72
2022/04/22 08:57:57;;;;;;;;;;;;;;;17.16;31.08;94119.84;10450332;28;1969;-72
2022/04/22 09:02:57;;;;;;;;;;;;;;;17.16;31.05;94113.81;10418972;28;1243;-72
2022/04/22 09:07:58;;;;;;;;;;;;;;;17.17;31.07;94108.28;10430771;28;1336;-73
2022/04/22 09:12:58;;;;;;;;;;;;;;;17.17;31.15;94107.50;10431707;28;1283;-73
2022/04/22 09:18:08;;;;;;;;;;;;;;;17.16;31.21;94117.22;10442825;28;1906;-72
2022/04/22 09:23:27;;;;;;;;;;;;;;;17.17;31.04;94117.97;10433592;28;1626;-73
2022/04/22 09:28:27;;;;;;;;;;;;;;;17.17;30.92;94112.72;10436396;28;1417;-71
2022/04/22 09:33:54;;;;;;;;;;;;;;;17.16;31.18;94114.59;10422790;28;1474;-71
2022/04/22 09:44:28;;;;;;;;;;;;;;;17.17;31.25;94100.44;10444930;28;1276;-72
2022/04/22 09:49:36;;;;;;;;;;;;;;;17.18;31.19;94104.59;10421403;28;1449;-72
2022/04/22 09:54:40;;;;;;;;;;;;;;;17.18;31.05;94099.38;10446021;28;2129;-72
2022/04/22 09:59:40;;;;;;;;;;;;;;;17.19;31.26;94097.53;10440865;28;1467;-72
2022/04/22 10:04:41;;;;;;;;;;;;;;;17.21;31.33;94098.78;10432185;28;1407;-72
2022/04/22 10:09:41;;;;;;;;;;;;;;;17.21;31.26;94098.78;10440904;28;1360;-73
2022/04/22 10:14:42;;;;;;;;;;;;;;;17.21;31.41;94101.41;10447628;28;1914;-72
2022/04/22 10:19:43;;;;;;;;;;;;;;;17.21;31.42;94093.53;10435417;28;1361;-71
2022/04/22 10:24:43;;;;;;;;;;;;;;;17.23;31.47;94095.88;10412088;28;1429;-72
2022/04/22 10:29:44;;;;;;;;;;;;;;;17.23;31.48;94090.66;10413699;28;1449;-72
2022/04/22 10:34:45;;;;;;;;;;;;;;;17.23;31.55;94093.28;10411563;28;1917;-72
2022/04/22 10:39:50;;;;;;;;;;;;;;;17.24;31.54;94094.81;10393235;28;1364;-72
2022/04/22 10:50:22;;;;;;;;;;;;;;;17.23;31.49;94086.16;10427813;28;1281;-72
2022/04/22 10:55:22;;;;;;;;;;;;;;;17.24;31.29;94089.56;10446891;28;1979;-72
2022/04/22 11:00:29;;;;;;;;;;;;;;;17.24;31.42;94089.56;10435798;28;1842;-72
2022/04/22 11:05:32;;;;;;;;;;;;;;;17.25;31.41;94094.50;10424783;28;1316;-72
2022/04/22 11:10:48;;;;;;;;;;;;;;;17.25;31.50;94086.66;10429588;28;1380;-72
2022/04/22 11:15:51;;;;;;;;;;;;;;;17.26;31.37;94082.97;10445621;28;1917;-72
2022/04/22 11:20:52;;;;;;;;;;;;;;;17.26;31.46;94084.81;10430718;28;1318;-72
2022/04/22 11:25:52;;;;;;;;;;;;;;;17.27;31.71;94089.75;10408586;28;1328;-72
2022/04/22 11:30:53;;;;;;;;;;;;;;;17.31;31.63;94092.59;10436047;28;1400;-71
2022/04/22 11:35:56;;;;;;;;;;;;;;;17.31;31.48;94103.81;10446102;28;1910;-72
2022/04/22 11:40:57;;;;;;;;;;;;;;;17.30;31.60;94107.50;10413755;28;2095;-73
2022/04/22 11:45:57;;;;;;;;;;;;;;;17.30;31.68;94099.66;10407362;28;1380;-72
2022/04/22 11:50:58;;;;;;;;;;;;;;;17.32;31.59;94097.53;10410474;28;1303;-73
2022/04/22 11:56:00;;;;;;;;;;;;;;;17.32;31.66;94089.66;10419589;28;1988;-72
2022/04/22 12:06:19;;;;;;;;;;;;;;;17.32;31.65;94097.53;10440771;28;2154;-72
2022/04/22 12:11:19;;;;;;;;;;;;;;;17.33;31.75;94085.97;10417902;28;1536;-71
2022/04/22 12:16:20;;;;;;;;;;;;;;;17.34;31.71;94094.59;10444477;28;1980;-72
2022/04/22 12:21:21;;;;;;;;;;;;;;;17.34;31.69;94097.22;10433397;28;1468;-72
2022/04/22 12:26:22;;;;;;;;;;;;;;;17.35;31.74;94093.53;10425133;28;1333;-72
2022/04/22 12:31:22;;;;;;;;;;;;;;;17.35;31.72;94089.06;10434882;28;1405;-72
2022/04/22 12:36:23;;;;;;;;;;;;;;;17.36;31.65;94087.22;10444029;28;1914;-72
2022/04/22 12:41:23;;;;;;;;;;;;;;;17.36;31.75;94089.84;10430873;28;1432;-73
2022/04/22 12:52:09;;;;;;;;;;;;;;;17.38;31.84;94087.72;10434312;28;1402;-72
2022/04/22 12:57:16;;;;;;;;;;;;;;;17.38;31.82;94088.50;10433902;28;1955;-73
2022/04/22 13:02:16;;;;;;;;;;;;;;;17.39;31.89;94078.81;10427215;28;1345;-72
2022/04/22 13:07:18;;;;;;;;;;;;;;;17.40;31.75;94088.97;10425149;28;1379;-71
2022/04/22 13:12:18;;;;;;;;;;;;;;;17.40;31.91;94083.72;10432329;28;1301;-73
2022/04/22 13:17:19;;;;;;;;;;;;;;;17.41;31.88;94087.91;10416498;28;1976;-72
2022/04/22 13:22:19;;;;;;;;;;;;;;;17.42;31.87;94086.84;10430785;28;1376;-73
2022/04/22 13:27:20;;;;;;;;;;;;;;;17.41;31.92;94081.91;10444709;28;1334;-73
2022/04/22 13:32:21;;;;;;;;;;;;;;;17.43;31.92;94080.53;10434419;28;1563;-72
2022/04/22 13:37:21;;;;;;;;;;;;;;;17.43;31.96;94080.53;10431969;28;1968;-72
2022/04/22 13:42:21;;;;;;;;;;;;;;;17.45;31.93;94085.47;10442812;28;1234;-73
2022/04/22 13:52:42;;;;;;;;;;;;;;;17.43;32.12;94085.00;10429872;28;1285;-72
2022/04/22 14:03:25;;;;;;;;;;;;;;;17.43;32.02;94091.03;10320621;28;1369;-52
2022/04/22 14:08:25;;;;;;;;;;;;;;;17.44;32.11;94091.78;10328918;28;1414;-49
2022/04/22 14:13:27;;;;;;;;;;;;;;;17.43;32.00;94088.41;10333877;28;1396;-52
2022/04/22 14:18:31;;;;;;;;;;;;;;;17.43;31.99;94091.03;10337763;28;1919;-53
2022/04/22 14:23:31;;;;;;;;;;;;;;;17.45;32.11;94091.50;10313725;28;1239;-48
2022/04/22 14:28:32;;;;;;;;;;;;;;;17.45;32.22;94101.97;10326131;28;1422;-51
2022/04/22 14:33:32;;;;;;;;;;;;;;;17.45;32.16;94103.81;10320394;28;1307;-50
2022/04/22 14:38:33;;;;;;;;;;;;;;;17.44;32.14;94108.28;10317350;28;2028;-52
2022/04/22 14:43:33;;;;;;;;;;;;;;;17.45;32.13;94103.81;10311387;28;1263;-51
2022/04/22 14:48:33;;;;;;;;;;;;;;;17.44;32.14;94105.66;10332060;28;1343;-54
2022/04/22 14:53:34;;;;;;;;;;;;;;;17.45;32.28;94104.59;10319613;28;1456;-49
2022/04/22 14:58:34;;;;;;;;;;;;;;;17.46;32.06;94115.84;10346851;28;1980;-55
2022/04/22 15:03:35;;;;;;;;;;;;;;;17.45;32.15;94119.53;10318819;28;1336;-54
2022/04/22 15:08:35;;;;;;;;;;;;;;;17.45;32.09;94120.31;10326682;28;1738;-50
2022/04/22 15:13:35;;;;;;;;;;;;;;;17.44;32.16;94116.13;10331982;28;1502;-50
2022/04/22 15:24:10;;;;;;;;;;;;;;;17.43;32.19;94127.69;10328755;28;1415;-52
2022/04/22 15:29:12;;;;;;;;;;;;;;;17.45;32.28;94128.19;10321241;28;1538;-48
2022/04/22 15:34:13;;;;;;;;;;;;;;;17.44;32.07;94120.59;10307729;28;1208;-49
2022/04/22 15:39:13;;;;;;;;;;;;;;;17.45;32.20;94124.78;10313412;28;1988;-54
2022/04/22 15:44:23;;;;;;;;;;;;;;;17.45;32.16;94120.31;10306042;28;1120;-51
2022/04/22 15:49:24;;;;;;;;;;;;;;;17.45;32.23;94127.41;10312284;28;1202;-50
2022/04/22 15:54:24;;;;;;;;;;;;;;;17.44;32.30;94131.84;10309515;28;1355;-51
2022/04/22 15:59:24;;;;;;;;;;;;;;;17.44;32.33;94133.69;10326311;28;1985;-51
2022/04/22 16:04:25;;;;;;;;;;;;;;;17.44;32.25;94134.47;10306263;28;1435;-52
2022/04/22 16:09:25;;;;;;;;;;;;;;;17.44;32.33;94133.69;10322772;28;1674;-53
2022/04/22 16:19:45;;;;;;;;;;;;;;;17.44;32.26;94134.47;10327385;28;1911;-53
2022/04/22 16:24:46;;;;;;;;;;;;;;;17.43;32.34;94143.41;10315571;28;1293;-54
2022/04/22 16:29:47;;;;;;;;;;;;;;;17.42;32.21;94141.84;10329524;28;1765;-49
2022/04/22 16:34:48;;;;;;;;;;;;;;;17.43;32.29;94142.63;10302144;28;1972;-49
2022/04/22 16:39:49;;;;;;;;;;;;;;;17.43;32.34;94140.78;10329425;28;1422;-53
2022/04/22 16:44:50;;;;;;;;;;;;;;;17.43;32.21;94146.03;10302603;28;1294;-49
2022/04/22 16:49:50;;;;;;;;;;;;;;;17.42;32.25;94147.09;10316585;28;1306;-47
2022/04/22 16:54:53;;;;;;;;;;;;;;;17.42;32.30;94148.91;10314614;28;1902;-51
2022/04/22 16:59:53;;;;;;;;;;;;;;;17.42;32.36;94157.56;10321249;28;1422;-49
2022/04/22 17:04:54;;;;;;;;;;;;;;;17.42;32.23;94147.09;10438410;22;3722;-58
2022/04/22 17:09:54;;;;;;;;;;;;;;;17.41;32.24;94156.03;10418831;28;1460;-55
2022/04/22 17:25:32;;;;;;;;;;;;;;;17.42;32.43;94165.41;10444720;28;1510;-58
2022/04/22 17:30:33;;;;;;;;;;;;;;;17.41;32.47;94163.09;10455605;28;1458;-58
2022/04/22 17:35:33;;;;;;;;;;;;;;;17.44;32.46;94171.13;10445994;28;1973;-58
2022/04/22 17:40:34;;;;;;;;;;;;;;;17.57;32.64;94175.63;10449022;28;1503;-57
2022/04/22 17:45:35;;;;;;;;;;;;;;;17.84;32.56;94187.94;10438391;28;2277;-56
2022/04/22 17:50:36;;;;;;;;;;;;;;;17.89;33.31;94187.81;10447422;28;1683;-53
2022/04/22 17:55:38;;;;;;;;;;;;;;;18.02;33.66;94188.88;10445510;28;1988;-54
2022/04/22 18:00:38;;;;;;;;;;;;;;;18.19;33.49;94202.94;10442167;28;1839;-58
2022/04/22 18:05:38;;;;;;;;;;;;;;;18.38;33.30;94205.41;10446784;28;2008;-56
2022/04/22 18:10:40;;;;;;;;;;;;;;;18.51;33.01;94204.59;10445825;28;1513;-55
2022/04/22 18:21:00;;;;;;;;;;;;;;;18.78;32.78;94219.47;10446907;28;1659;-58
2022/04/22 18:26:01;;;;;;;;;;;;;;;18.85;32.65;94223.25;10446242;28;1439;-55
2022/04/22 18:31:01;;;;;;;;;;;;;;;18.90;32.77;94225.75;10445738;28;1497;-56
2022/04/22 18:36:02;;;;;;;;;;;;;;;18.97;32.87;94233.97;10431024;28;1957;-59
2022/04/22 18:41:03;;;;;;;;;;;;;;;19.16;32.96;94241.66;10437236;28;1638;-54
2022/04/22 18:46:03;;;;;;;;;;;;;;;19.18;33.35;94256.06;10439547;28;2255;-55
2022/04/22 18:51:04;;;;;;;;;;;;;;;19.25;33.59;94266.91;10443573;28;2289;-52
2022/04/22 18:56:04;;;;;;;;;;;;;;;19.33;33.47;94271.47;10440894;28;1917;-53
2022/04/22 19:01:04;;;;;;;;;;;;;;;19.43;33.11;94271.22;10436108;28;1996;-53
2022/04/22 19:06:05;;;;;;;;;;;;;;;19.52;32.92;94275.72;10441267;28;1802;-53
2022/04/22 19:11:06;;;;;;;;;;;;;;;19.54;33.07;94284.88;10439789;28;1807;-61
2022/04/22 19:16:07;;;;;;;;;;;;;;;19.62;33.10;94291.25;10425197;28;1914;-55
2022/04/22 19:21:07;;;;;;;;;;;;;;;19.67;32.90;94297.16;10438900;28;1881;-53
2022/04/22 19:26:08;;;;;;;;;;;;;;;19.71;32.75;94290.22;10442378;28;2084;-52
2022/04/22 19:31:08;;;;;;;;;;;;;;;19.75;32.83;94293.00;10425127;28;1801;-50
2022/04/22 19:41:28;;;;;;;;;;;;;;;19.91;32.99;94288.91;10442745;28;1858;-56
2022/04/22 19:46:28;;;;;;;;;;;;;;;19.99;33.42;94296.06;10440234;28;1910;-58
2022/04/22 19:51:29;;;;;;;;;;;;;;;20.12;33.43;94305.69;10442357;28;1758;-58
2022/04/22 19:56:29;;;;;;;;;;;;;;;20.20;33.43;94307.59;10440098;28;1914;-58
2022/04/22 20:01:30;;;;;;;;;;;;;;;20.24;33.86;94309.31;10438459;28;1624;-56
2022/04/22 20:06:30;;;;;;;;;;;;;;;20.32;33.69;94320.94;10440520;28;2032;-55
2022/04/22 20:11:32;;;;;;;;;;;;;;;20.41;34.02;94331.50;10442356;28;1852;-58
2022/04/22 20:16:32;;;;;;;;;;;;;;;20.48;34.63;94335.25;10439500;28;1923;-56
2022/04/22 20:21:32;;;;;;;;;;;;;;;20.55;34.54;94338.19;10440310;28;1968;-58
2022/04/22 20:26:33;;;;;;;;;;;;;;;20.58;35.07;94345.50;10441746;28;1926;-59
2022/04/22 20:31:34;;;;;;;;;;;;;;;20.64;34.88;94344.25;10450950;28;1971;-56
2022/04/22 20:41:54;;;;;;;;;;;;;;;20.73;35.32;94360.84;10449251;28;1802;-56
2022/04/22 20:46:54;;;;;;;;;;;;;;;20.78;35.21;94365.97;10429380;28;1820;-57
2022/04/22 20:51:55;;;;;;;;;;;;;;;20.80;35.16;94363.78;10448847;28;1840;-57
2022/04/22 20:56:56;;;;;;;;;;;;;;;20.86;35.01;94365.19;10430204;28;1927;-58
2022/04/22 21:01:56;;;;;;;;;;;;;;;20.88;35.00;94368.31;10449130;28;1798;-58
2022/04/22 21:06:56;;;;;;;;;;;;;;;20.89;35.38;94367.22;10444752;28;1868;-54
2022/04/22 21:11:57;;;;;;;;;;;;;;;20.96;35.70;94370.16;10446963;28;1797;-60
2022/04/22 21:16:57;;;;;;;;;;;;;;;21.00;36.67;94370.31;10448852;28;1909;-58
2022/04/22 21:21:57;;;;;;;;;;;;;;;20.97;37.84;94371.72;10459269;28;2098;-57
2022/04/22 21:26:58;;;;;;;;;;;;;;;20.97;38.30;94382.28;10442078;28;2374;-58
2022/04/22 21:31:58;;;;;;;;;;;;;;;21.02;38.81;94382.13;10446070;28;1986;-58
2022/04/22 21:36:58;;;;;;;;;;;;;;;21.02;38.56;94382.13;10425787;28;2044;-57
2022/04/22 21:41:59;;;;;;;;;;;;;;;21.01;38.11;94388.47;10441452;28;1897;-58
2022/04/22 21:47:00;;;;;;;;;;;;;;;21.04;39.31;94374.69;10439433;28;1824;-55
2022/04/22 21:52:03;;;;;;;;;;;;;;;21.08;38.02;94384.63;10439807;28;1742;-57
2022/04/22 21:57:04;;;;;;;;;;;;;;;21.13;38.41;94387.09;10437486;28;2075;-57
2022/04/22 22:02:05;;;;;;;;;;;;;;;21.16;38.30;94387.28;10442277;28;1739;-56
2022/04/22 22:07:06;;;;;;;;;;;;;;;21.17;38.56;94388.03;10442538;28;1806;-54
2022/04/22 22:12:07;;;;;;;;;;;;;;;21.21;38.50;94396.88;10440239;28;1901;-55
2022/04/22 22:17:08;;;;;;;;;;;;;;;21.19;39.35;94396.41;10439620;28;1905;-55
2022/04/22 22:22:08;;;;;;;;;;;;;;;21.19;38.68;94412.22;10439827;28;1942;-52
2022/04/22 22:27:09;;;;;;;;;;;;;;;21.20;38.09;94405.88;10441624;28;1858;-54
2022/04/22 22:32:09;;;;;;;;;;;;;;;21.22;38.53;94408.97;10439466;28;1727;-55
2022/04/22 22:37:09;;;;;;;;;;;;;;;21.23;38.33;94403.38;10439153;28;1910;-52
2022/04/22 22:42:11;;;;;;;;;;;;;;;21.25;38.36;94410.97;10438526;28;1806;-52
2022/04/22 22:47:12;;;;;;;;;;;;;;;21.25;38.58;94405.69;10437774;28;1834;-53
2022/04/22 22:52:13;;;;;;;;;;;;;;;21.28;38.32;94405.88;10436418;28;1809;-52
2022/04/22 22:57:13;;;;;;;;;;;;;;;21.29;38.41;94406.66;10439630;28;1941;-53
2022/04/22 23:02:13;;;;;;;;;;;;;;;21.31;38.46;94404.50;10436231;28;1776;-51
2022/04/22 23:07:16;;;;;;;;;;;;;;;21.32;38.37;94408.66;10436314;28;1936;-52
2022/04/22 23:12:21;;;;;;;;;;;;;;;21.34;38.29;94417.81;10437214;28;1776;-51
2022/04/22 23:17:24;;;;;;;;;;;;;;;21.35;38.21;94419.34;10438737;28;1918;-54
2022/04/22 23:22:28;;;;;;;;;;;;;;;21.38;38.03;94415.34;10436457;28;1871;-54
2022/04/22 23:27:28;;;;;;;;;;;;;;;21.41;37.99;94420.75;10438166;28;1819;-55
2022/04/22 23:32:29;;;;;;;;;;;;;;;21.44;37.86;94406.19;10435729;28;1795;-53
2022/04/22 23:37:30;;;;;;;;;;;;;;;21.44;38.12;94403.53;10438505;28;1930;-51
2022/04/22 23:42:30;;;;;;;;;;;;;;;21.47;37.77;94392.38;10437742;28;1856;-52
2022/04/22 23:47:30;;;;;;;;;;;;;;;21.48;37.55;94383.38;10437240;28;1814;-52
2022/04/22 23:52:31;;;;;;;;;;;;;;;21.46;37.99;94381.06;10434379;28;2002;-51
2022/04/22 23:57:31;;;;;;;;;;;;;;;21.49;38.00;94387.59;10436798;28;1918;-54
